createdAt,value
2022-09-23T00:01:14.736Z,90.86
2022-09-23T00:03:45.613Z,90.50
2022-09-23T00:06:15.832Z,91.38
2022-09-23T00:08:44.104Z,90.86
2022-09-23T00:11:19.693Z,90.90
2022-09-23T00:13:49.005Z,90.78
2022-09-23T00:16:24.646Z,91.17
2022-09-23T00:18:51.635Z,91.27
2022-09-23T00:21:19.946Z,91.43
2022-09-23T00:23:47.503Z,90.84
2022-09-23T00:26:17.230Z,91.02
2022-09-23T00:28:44.164Z,91.64
2022-09-23T00:31:23.489Z,91.33
2022-09-23T00:33:59.011Z,91.28
2022-09-23T00:36:27.210Z,91.26
2022-09-23T00:38:55.118Z,91.65
2022-09-23T00:41:22.324Z,90.55
2022-09-23T00:43:53.018Z,90.49
2022-09-23T00:46:29.778Z,90.54
2022-09-23T00:49:28.217Z,90.11
2022-09-23T00:52:06.857Z,90.19
2022-09-23T00:54:34.216Z,90.08
2022-09-23T00:57:01.780Z,89.76
2022-09-23T00:59:29.257Z,89.19
2022-09-23T01:01:59.142Z,88.48
2022-09-23T01:04:28.042Z,87.33
2022-09-23T01:06:54.952Z,86.25
2022-09-23T01:09:23.223Z,85.80
2022-09-23T01:12:02.214Z,85.35
2022-09-23T01:14:45.977Z,84.71
2022-09-23T01:17:19.495Z,84.82
2022-09-23T01:20:14.515Z,84.05
2022-09-23T01:22:41.485Z,84.73
2022-09-23T01:25:14.236Z,84.91
2022-09-23T01:27:53.310Z,84.96
2022-09-23T01:30:48.518Z,84.82
2022-09-23T01:33:51.600Z,85.25
2022-09-23T01:36:21.235Z,85.06
2022-09-23T01:38:50.933Z,85.04
2022-09-23T01:41:55.571Z,85.20
2022-09-23T01:44:27.632Z,85.12
2022-09-23T01:47:00.821Z,85.12
2022-09-23T01:49:52.261Z,85.03
2022-09-23T01:52:44.767Z,84.48
2022-09-23T01:55:39.223Z,84.99
2022-09-23T01:58:12.484Z,85.37
2022-09-23T02:00:48.189Z,85.41
2022-09-23T02:03:27.576Z,85.50
2022-09-23T02:05:58.406Z,85.04
2022-09-23T02:08:45.665Z,84.95
2022-09-23T02:11:15.487Z,85.37
2022-09-23T02:14:07.805Z,85.39
2022-09-23T02:16:43.177Z,85.33
2022-09-23T02:19:18.559Z,85.45
2022-09-23T02:21:53.076Z,85.80
2022-09-23T02:24:22.740Z,86.29
2022-09-23T02:26:56.053Z,86.20
2022-09-23T02:29:33.807Z,85.88
2022-09-23T02:32:35.361Z,85.59
2022-09-23T02:35:18.689Z,85.39
2022-09-23T02:38:07.156Z,86.14
2022-09-23T02:40:47.381Z,86.09
2022-09-23T02:43:31.496Z,86.08
2022-09-23T02:45:58.813Z,85.94
2022-09-23T02:48:34.322Z,85.91
2022-09-23T02:51:03.695Z,85.97
2022-09-23T02:53:35.107Z,86.00
2022-09-23T02:56:12.874Z,86.03
2022-09-23T02:58:39.859Z,86.47
2022-09-23T03:01:11.113Z,85.61
2022-09-23T03:04:21.586Z,85.74
2022-09-23T03:07:21.932Z,85.64
2022-09-23T03:09:59.016Z,85.06
2022-09-23T03:12:47.894Z,85.22
2022-09-23T03:15:23.353Z,85.03
2022-09-23T03:18:01.443Z,84.81
2022-09-23T03:20:45.345Z,84.29
2022-09-23T03:23:15.381Z,84.14
2022-09-23T03:25:47.511Z,84.05
2022-09-23T03:28:17.698Z,84.46
2022-09-23T03:30:45.366Z,84.50
2022-09-23T03:33:16.892Z,84.39
2022-09-23T03:36:15.993Z,84.53
2022-09-23T03:38:51.637Z,84.40
2022-09-23T03:41:30.269Z,84.67
2022-09-23T03:44:00.001Z,83.79
2022-09-23T03:46:28.680Z,84.05
2022-09-23T03:49:19.985Z,83.96
2022-09-23T03:51:47.066Z,84.03
2022-09-23T03:54:14.000Z,84.02
2022-09-23T03:56:40.953Z,83.55
2022-09-23T03:59:08.033Z,83.56
2022-09-23T04:01:34.941Z,83.58
2022-09-23T04:04:04.506Z,83.20
2022-09-23T04:06:31.424Z,83.61
2022-09-23T04:08:59.030Z,83.04
2022-09-23T04:11:25.932Z,82.81
2022-09-23T04:13:52.840Z,82.89
2022-09-23T04:16:19.765Z,82.73
2022-09-23T04:18:46.867Z,82.08
2022-09-23T04:21:13.785Z,81.56
2022-09-23T04:23:41.384Z,82.19
2022-09-23T04:26:08.478Z,81.80
2022-09-23T04:28:35.492Z,81.51
2022-09-23T04:31:07.173Z,80.71
2022-09-23T04:33:34.549Z,81.00
2022-09-23T04:36:01.817Z,80.62
2022-09-23T04:38:28.905Z,80.32
2022-09-23T04:40:55.881Z,80.02
2022-09-23T04:43:23.765Z,79.33
2022-09-23T04:46:01.293Z,77.88
2022-09-23T04:48:28.889Z,78.45
2022-09-23T04:51:03.263Z,77.71
2022-09-23T04:53:31.509Z,78.27
2022-09-23T04:56:05.737Z,77.43
2022-09-23T04:58:33.789Z,76.44
2022-09-23T05:01:12.237Z,75.64
2022-09-23T05:03:39.556Z,75.87
2022-09-23T05:06:07.885Z,75.94
2022-09-23T05:08:35.322Z,75.46
2022-09-23T05:11:07.481Z,74.25
2022-09-23T05:13:35.434Z,73.61
2022-09-23T05:16:08.383Z,72.51
2022-09-23T05:18:36.180Z,72.05
2022-09-23T05:21:03.760Z,71.16
2022-09-23T05:23:30.783Z,70.84
2022-09-23T05:26:04.054Z,70.74
2022-09-23T05:28:33.095Z,69.32
2022-09-23T05:31:17.151Z,69.08
2022-09-23T05:33:49.252Z,68.76
2022-09-23T05:36:17.908Z,68.79
2022-09-23T05:38:45.574Z,68.79
2022-09-23T05:41:14.064Z,68.43
2022-09-23T05:43:41.448Z,67.85
2022-09-23T05:46:16.412Z,66.91
2022-09-23T05:48:45.945Z,66.95
2022-09-23T05:51:27.498Z,66.20
2022-09-23T05:53:58.457Z,65.12
2022-09-23T05:56:27.656Z,64.59
2022-09-23T05:58:56.424Z,63.14
2022-09-23T06:01:25.798Z,62.36
2022-09-23T06:03:54.515Z,61.91
2022-09-23T06:06:26.505Z,61.48
2022-09-23T06:08:53.510Z,61.76
2022-09-23T06:11:21.670Z,61.69
2022-09-23T06:13:49.445Z,62.04
2022-09-23T06:16:16.705Z,62.12
2022-09-23T06:18:45.798Z,61.75
2022-09-23T06:21:17.209Z,61.61
2022-09-23T06:23:45.431Z,62.27
2022-09-23T06:26:14.773Z,61.48
2022-09-23T06:28:43.135Z,61.02
2022-09-23T06:31:15.670Z,60.40
2022-09-23T06:33:44.993Z,60.12
2022-09-23T06:36:22.669Z,60.31
2022-09-23T06:38:57.909Z,59.95
2022-09-23T06:41:24.795Z,59.07
2022-09-23T06:43:52.644Z,58.72
2022-09-23T06:46:21.339Z,59.56
2022-09-23T06:48:49.251Z,59.27
2022-09-23T06:51:19.382Z,59.46
2022-09-23T06:53:48.257Z,59.13
2022-09-23T06:56:16.803Z,59.61
2022-09-23T06:58:43.810Z,59.90
2022-09-23T07:01:16.161Z,59.80
2022-09-23T07:03:44.781Z,60.52
2022-09-23T07:06:12.082Z,60.47
2022-09-23T07:08:42.680Z,61.22
2022-09-23T07:11:12.355Z,61.25
2022-09-23T07:13:41.297Z,60.75
2022-09-23T07:16:09.120Z,60.98
2022-09-23T07:18:37.476Z,61.52
2022-09-23T07:21:07.173Z,61.95
2022-09-23T07:23:34.305Z,62.44
2022-09-23T07:26:01.440Z,62.52
2022-09-23T07:28:29.246Z,61.69
2022-09-23T07:31:00.288Z,61.27
2022-09-23T07:33:32.961Z,61.65
2022-09-23T07:36:32.909Z,61.85
2022-09-23T07:39:03.985Z,62.23
2022-09-23T07:41:33.169Z,62.64
2022-09-23T07:44:01.270Z,62.79
2022-09-23T07:46:31.757Z,63.04
2022-09-23T07:48:59.244Z,62.07
2022-09-23T07:51:36.045Z,61.72
2022-09-23T07:54:08.019Z,60.93
2022-09-23T07:56:36.341Z,61.15
2022-09-23T07:59:04.797Z,60.77
2022-09-23T08:01:37.293Z,59.94
2022-09-23T08:04:13.058Z,59.67
2022-09-23T08:06:45.133Z,60.34
2022-09-23T08:09:12.806Z,60.25
2022-09-23T08:11:42.230Z,60.38
2022-09-23T08:14:11.363Z,59.83
2022-09-23T08:16:38.715Z,60.14
2022-09-23T08:19:06.329Z,60.01
2022-09-23T08:21:33.785Z,58.69
2022-09-23T08:24:00.831Z,58.38
2022-09-23T08:26:28.941Z,56.75
2022-09-23T08:28:56.611Z,57.04
2022-09-23T08:31:24.082Z,56.56
2022-09-23T08:33:58.544Z,54.55
2022-09-23T08:36:26.019Z,55.54
2022-09-23T08:38:53.253Z,54.72
2022-09-23T08:41:26.331Z,54.22
2022-09-23T08:44:26.796Z,54.14
2022-09-23T08:47:28.086Z,53.84
2022-09-23T08:50:06.657Z,53.86
2022-09-23T08:52:49.343Z,54.64
2022-09-23T08:55:17.660Z,55.72
2022-09-23T08:58:26.195Z,56.32
2022-09-23T09:01:00.199Z,57.43
2022-09-23T09:03:35.154Z,56.96
2022-09-23T09:06:03.135Z,57.03
2022-09-23T09:08:35.268Z,57.29
2022-09-23T09:11:03.357Z,57.50
2022-09-23T09:13:34.683Z,57.57
2022-09-23T09:16:36.670Z,56.93
2022-09-23T09:19:19.151Z,56.80
2022-09-23T09:21:50.684Z,56.93
2022-09-23T09:24:23.051Z,57.08
2022-09-23T09:26:50.414Z,57.68
2022-09-23T09:29:41.618Z,57.66
2022-09-23T09:32:47.450Z,56.68
2022-09-23T09:35:56.213Z,55.62
2022-09-23T09:38:24.202Z,55.51
2022-09-23T09:40:51.263Z,55.81
2022-09-23T09:43:25.241Z,56.68
2022-09-23T09:46:23.212Z,56.22
2022-09-23T09:48:59.871Z,56.81
2022-09-23T09:51:29.091Z,56.41
2022-09-23T09:54:17.291Z,55.48
2022-09-23T09:56:45.163Z,55.71
2022-09-23T09:59:18.537Z,55.38
2022-09-23T10:01:46.254Z,55.71
2022-09-23T10:04:33.702Z,55.15
2022-09-23T10:07:24.563Z,55.56
2022-09-23T10:09:51.790Z,55.49
2022-09-23T10:12:24.589Z,54.84
2022-09-23T10:15:01.175Z,54.12
2022-09-23T10:17:34.462Z,54.33
2022-09-23T10:20:07.944Z,53.46
2022-09-23T10:22:42.907Z,53.31
2022-09-23T10:25:17.186Z,52.62
2022-09-23T10:27:45.636Z,53.10
2022-09-23T10:30:15.331Z,52.78
2022-09-23T10:32:45.767Z,53.19
2022-09-23T10:35:21.180Z,52.21
2022-09-23T10:37:54.910Z,52.21
2022-09-23T10:40:43.363Z,53.74
2022-09-23T10:43:44.073Z,54.23
2022-09-23T10:46:39.710Z,55.46
2022-09-23T10:49:36.669Z,56.21
2022-09-23T10:52:22.358Z,56.23
2022-09-23T10:55:04.337Z,56.61
2022-09-23T10:57:46.527Z,57.43
2022-09-23T11:00:14.753Z,56.92
2022-09-23T11:02:57.046Z,57.51
2022-09-23T11:05:52.141Z,57.52
2022-09-23T11:08:37.437Z,57.55
2022-09-23T11:11:19.934Z,56.79
2022-09-23T11:13:59.140Z,56.37
2022-09-23T11:16:53.900Z,55.47
2022-09-23T11:19:34.265Z,54.74
2022-09-23T11:22:42.363Z,52.51
2022-09-23T11:25:40.769Z,52.27
2022-09-23T11:28:33.216Z,52.44
2022-09-23T11:31:19.791Z,51.49
2022-09-23T11:34:08.323Z,52.73
2022-09-23T11:36:41.616Z,53.79
2022-09-23T11:39:17.019Z,53.72
2022-09-23T11:41:45.147Z,54.37
2022-09-23T11:44:21.666Z,53.60
2022-09-23T11:47:01.650Z,53.50
2022-09-23T11:49:40.270Z,53.00
2022-09-23T11:52:10.696Z,53.10
2022-09-23T11:54:46.470Z,52.67
2022-09-23T11:57:24.389Z,52.83
2022-09-23T12:00:16.700Z,52.90
2022-09-23T12:03:32.283Z,52.75
2022-09-23T12:06:18.658Z,52.04
2022-09-23T12:08:45.581Z,52.21
2022-09-23T12:11:37.447Z,51.32
2022-09-23T12:14:19.485Z,51.44
2022-09-23T12:17:16.841Z,50.78
2022-09-23T12:19:47.664Z,51.15
2022-09-23T12:22:52.782Z,50.25
2022-09-23T12:25:52.328Z,49.34
2022-09-23T12:28:36.225Z,48.17
2022-09-23T12:31:08.629Z,48.88
2022-09-23T12:33:36.979Z,48.57
2022-09-23T12:36:05.519Z,48.60
2022-09-23T12:38:37.699Z,48.53
2022-09-23T12:41:26.527Z,48.03
2022-09-23T12:43:57.658Z,48.84
2022-09-23T12:46:27.578Z,48.52
2022-09-23T12:49:03.325Z,49.05
2022-09-23T12:51:35.695Z,49.94
2022-09-23T12:54:05.346Z,50.63
2022-09-23T12:56:38.822Z,50.45
2022-09-23T12:59:29.361Z,51.44
2022-09-23T13:01:57.679Z,51.56
2022-09-23T13:05:02.494Z,52.26
2022-09-23T13:07:34.285Z,53.50
2022-09-23T13:10:18.395Z,54.03
2022-09-23T13:12:46.780Z,53.96
2022-09-23T13:15:26.865Z,53.79
2022-09-23T13:17:53.853Z,54.42
2022-09-23T13:20:20.794Z,55.49
2022-09-23T13:22:53.689Z,55.61
2022-09-23T13:25:29.599Z,55.90
2022-09-23T13:28:01.226Z,56.52
2022-09-23T13:30:28.612Z,56.42
2022-09-23T14:12:09.327Z,62.11
2022-09-23T14:14:39.517Z,62.55
2022-09-23T14:17:08.827Z,62.75
2022-09-23T14:19:36.979Z,62.68
2022-09-23T14:22:04.217Z,63.77
2022-09-23T14:24:34.146Z,63.75
2022-09-23T14:27:13.076Z,64.16
2022-09-23T14:29:43.528Z,64.17
2022-09-23T14:32:18.079Z,64.03
2022-09-23T14:34:49.827Z,64.31
2022-09-23T14:37:58.707Z,64.50
2022-09-23T14:40:29.434Z,65.28
2022-09-23T14:43:06.905Z,65.34
2022-09-23T14:45:36.521Z,65.24
2022-09-23T14:48:13.185Z,65.44
2022-09-23T14:50:50.121Z,65.33
2022-09-23T14:53:22.957Z,66.18
2022-09-23T14:55:53.015Z,66.45
2022-09-23T14:58:25.766Z,66.71
2022-09-23T15:00:59.551Z,66.38
2022-09-23T15:03:28.542Z,67.11
2022-09-23T15:06:08.884Z,67.23
2022-09-23T15:08:36.122Z,67.67
2022-09-23T15:11:08.222Z,68.17
2022-09-23T15:13:42.020Z,68.09
2022-09-23T15:16:09.422Z,68.90
2022-09-23T15:18:38.879Z,68.95
2022-09-23T15:21:15.898Z,69.67
2022-09-23T15:23:48.850Z,69.57
2022-09-23T15:26:20.270Z,69.87
2022-09-23T15:28:48.298Z,69.84
2022-09-23T15:31:19.964Z,71.08
2022-09-23T15:33:48.394Z,70.32
2022-09-23T15:36:21.708Z,71.21
2022-09-23T15:38:49.370Z,71.26
2022-09-23T15:41:17.406Z,71.99
2022-09-23T15:43:44.347Z,71.56
2022-09-23T15:46:19.420Z,72.12
2022-09-23T15:49:02.193Z,71.71
2022-09-23T15:51:29.237Z,72.10
2022-09-23T15:53:56.489Z,72.81
2022-09-23T15:56:24.878Z,72.30
2022-09-23T15:58:51.822Z,73.15
2022-09-23T16:01:28.920Z,72.76
2022-09-23T16:03:56.649Z,73.33
2022-09-23T16:06:24.550Z,74.22
2022-09-23T16:08:52.563Z,74.32
2022-09-23T16:11:25.140Z,73.89
2022-09-23T16:13:52.464Z,73.85
2022-09-23T16:16:22.857Z,74.49
2022-09-23T16:18:53.312Z,74.75
2022-09-23T16:21:22.418Z,75.23
2022-09-23T16:23:51.348Z,75.20
2022-09-23T16:26:22.789Z,75.21
2022-09-23T16:28:51.758Z,74.82
2022-09-23T16:31:19.744Z,75.45
2022-09-23T16:33:48.233Z,75.02
2022-09-23T16:36:27.047Z,75.54
2022-09-23T16:38:57.958Z,75.09
2022-09-23T16:41:26.438Z,75.51
2022-09-23T16:43:53.807Z,75.34
2022-09-23T16:46:21.356Z,75.86
2022-09-23T16:48:52.582Z,75.87
2022-09-23T16:51:34.069Z,75.81
2022-09-23T16:54:00.982Z,76.27
2022-09-23T16:56:29.352Z,77.41
2022-09-23T16:58:57.351Z,77.18
2022-09-23T17:01:45.100Z,78.17
2022-09-23T17:04:13.559Z,78.29
2022-09-23T17:06:50.740Z,78.59
2022-09-23T17:09:19.985Z,79.01
2022-09-23T17:11:53.073Z,79.05
2022-09-23T17:14:20.776Z,79.01
2022-09-23T17:16:47.651Z,78.74
2022-09-23T17:19:14.773Z,79.13
2022-09-23T17:21:41.919Z,79.69
2022-09-23T17:24:10.017Z,78.35
2022-09-23T17:26:38.361Z,78.99
2022-09-23T17:29:05.760Z,78.37
2022-09-23T17:31:32.989Z,78.72
2022-09-23T17:34:00.921Z,78.47
2022-09-23T17:36:28.309Z,78.22
2022-09-23T17:38:56.016Z,78.09
2022-09-23T17:41:23.009Z,78.82
2022-09-23T17:44:00.618Z,78.64
2022-09-23T17:46:30.289Z,77.98
2022-09-23T17:48:57.473Z,78.10
2022-09-23T17:51:25.629Z,78.29
2022-09-23T17:53:52.694Z,77.88
2022-09-23T17:56:29.914Z,77.75
2022-09-23T17:59:01.074Z,78.30
2022-09-23T18:01:28.636Z,78.50
2022-09-23T18:03:57.434Z,78.01
2022-09-23T18:06:26.856Z,78.63
2022-09-23T18:08:56.018Z,78.78
2022-09-23T18:11:28.755Z,78.38
2022-09-23T18:14:16.026Z,78.63
2022-09-23T18:16:44.808Z,78.42
2022-09-23T18:19:14.362Z,78.44
2022-09-23T18:21:44.007Z,78.74
2022-09-23T18:26:59.978Z,79.26
2022-09-23T18:29:27.162Z,78.91
2022-09-23T18:31:54.384Z,78.69
2022-09-23T18:34:21.640Z,78.72
2022-09-23T18:36:48.569Z,78.56
2022-09-23T18:39:15.550Z,78.19
2022-09-23T18:41:42.521Z,78.43
2022-09-23T18:44:09.902Z,79.34
2022-09-23T18:46:37.170Z,79.03
2022-09-23T18:49:22.715Z,78.95
2022-09-23T18:51:55.860Z,78.95
2022-09-23T18:54:27.977Z,79.49
2022-09-23T18:56:55.878Z,79.26
2022-09-23T18:59:28.114Z,79.31
2022-09-23T19:01:55.894Z,78.88
2022-09-23T19:04:24.850Z,79.25
2022-09-23T19:06:52.048Z,79.52
2022-09-23T19:09:19.988Z,79.50
2022-09-23T19:11:46.999Z,79.77
2022-09-23T19:14:14.064Z,79.20
2022-09-23T19:16:41.655Z,79.31
2022-09-23T19:19:09.009Z,79.85
2022-09-23T19:21:36.571Z,79.75
2022-09-23T19:24:07.097Z,79.38
2022-09-23T19:26:39.742Z,79.42
2022-09-23T19:29:09.053Z,79.68
2022-09-23T19:31:41.277Z,79.85
2022-09-23T19:34:15.852Z,79.39
2022-09-23T19:36:45.068Z,79.12
2022-09-23T19:39:24.008Z,79.84
2022-09-23T19:41:52.567Z,79.68
2022-09-23T19:44:20.294Z,79.96
2022-09-23T19:46:53.652Z,79.70
2022-09-23T19:49:24.699Z,80.05
2022-09-23T19:51:52.108Z,79.07
2022-09-23T19:54:20.775Z,79.73
2022-09-23T19:56:51.043Z,79.25
2022-09-23T19:59:19.364Z,79.52
2022-09-23T20:01:48.362Z,79.68
2022-09-23T20:04:16.157Z,79.69
2022-09-23T20:06:43.358Z,80.05
2022-09-23T20:09:10.283Z,79.32
2022-09-23T20:11:37.369Z,79.85
2022-09-23T20:14:06.230Z,79.84
2022-09-23T20:16:35.737Z,79.53
2022-09-23T20:19:04.453Z,79.67
2022-09-23T20:21:33.539Z,79.73
2022-09-23T20:24:01.310Z,79.69
2022-09-23T20:26:47.175Z,79.46
2022-09-23T20:29:14.385Z,79.34
2022-09-23T20:31:41.696Z,79.16
2022-09-23T20:34:10.890Z,79.36
2022-09-23T20:36:40.149Z,79.94
2022-09-23T20:39:07.373Z,79.31
2022-09-23T20:41:37.591Z,79.81
2022-09-23T20:44:08.048Z,79.54
2022-09-23T20:46:35.948Z,79.32
2022-09-23T20:49:04.287Z,79.58
2022-09-23T20:51:33.461Z,79.44
2022-09-23T20:54:01.176Z,79.62
2022-09-23T20:56:29.263Z,79.54
2022-09-23T20:59:04.303Z,79.79
2022-09-23T21:01:36.658Z,80.36
2022-09-23T21:04:05.841Z,79.81
2022-09-23T21:06:35.729Z,79.86
2022-09-23T21:09:03.562Z,79.65
2022-09-23T21:11:32.078Z,80.07
2022-09-23T21:14:00.490Z,80.42
2022-09-23T21:16:27.795Z,79.83
2022-09-23T21:18:54.745Z,79.88
2022-09-23T21:21:22.471Z,80.33
2022-09-23T21:23:50.892Z,79.86
2022-09-23T21:26:20.743Z,80.52
2022-09-23T21:28:50.441Z,80.30
2022-09-23T21:31:23.374Z,80.71
2022-09-23T21:33:59.509Z,80.13
2022-09-23T21:36:28.879Z,80.65
2022-09-23T21:38:56.393Z,79.87
2022-09-23T21:41:23.931Z,80.35
2022-09-23T21:43:51.302Z,80.59
2022-09-23T21:46:20.544Z,80.59
2022-09-23T21:48:53.810Z,81.07
2022-09-23T21:51:24.892Z,81.48
2022-09-23T21:53:54.602Z,81.66
2022-09-23T21:56:24.512Z,81.79
2022-09-23T21:58:54.051Z,82.81
2022-09-23T22:01:25.059Z,83.52
2022-09-23T22:04:08.601Z,84.97
2022-09-23T22:06:38.324Z,85.68
2022-09-23T22:09:10.573Z,85.33
2022-09-23T22:11:57.766Z,86.03
2022-09-23T22:14:26.383Z,87.10
2022-09-23T22:16:59.709Z,87.60
2022-09-23T22:19:32.904Z,87.72
2022-09-23T22:22:00.207Z,88.36
2022-09-23T22:24:27.232Z,88.99
2022-09-23T22:26:54.221Z,89.34
2022-09-23T22:29:39.618Z,89.31
2022-09-23T22:32:29.862Z,89.66
2022-09-23T22:34:57.021Z,90.24
2022-09-23T22:37:30.584Z,89.70
2022-09-23T22:39:57.561Z,91.09
2022-09-23T22:42:24.461Z,91.04
2022-09-23T22:44:52.077Z,91.77
2022-09-23T22:47:19.964Z,91.96
2022-09-23T22:49:47.886Z,92.66
2022-09-23T22:52:16.206Z,92.47
2022-09-23T22:54:43.396Z,92.34
2022-09-23T22:57:10.650Z,92.80
2022-09-23T22:59:37.749Z,92.89
2022-09-23T23:02:06.657Z,92.90
2022-09-23T23:04:33.978Z,93.56
2022-09-23T23:07:00.929Z,93.51
2022-09-23T23:09:27.825Z,93.52
2022-09-23T23:11:54.747Z,93.69
2022-09-23T23:14:21.819Z,94.27
2022-09-23T23:16:49.399Z,94.60
2022-09-23T23:19:19.334Z,94.57
2022-09-23T23:21:46.320Z,95.06
2022-09-23T23:24:17.318Z,94.41
2022-09-23T23:26:45.321Z,95.22
2022-09-23T23:29:14.070Z,94.82
2022-09-23T23:31:41.546Z,95.07
2022-09-23T23:34:14.899Z,95.38
2022-09-23T23:36:42.218Z,95.17
2022-09-23T23:39:09.449Z,95.95
2022-09-23T23:41:36.933Z,95.78
2022-09-23T23:44:05.570Z,96.33
2022-09-23T23:46:33.106Z,96.53
2022-09-23T23:49:00.599Z,96.27
2022-09-23T23:51:28.191Z,96.11
2022-09-23T23:53:56.023Z,95.71
2022-09-23T23:56:25.000Z,96.15
2022-09-23T23:58:59.817Z,96.75
